createdAt,value
2018-04-22T00:01:47.188Z,15.18
2018-04-22T00:04:50.454Z,15.06
2018-04-22T00:07:53.683Z,15.07
2018-04-22T00:11:05.864Z,15.06
2018-04-22T00:14:09.999Z,15.04
2018-04-22T00:17:14.039Z,14.97
2018-04-22T00:20:17.306Z,14.80
2018-04-22T00:23:21.344Z,14.81
2018-04-22T00:26:24.647Z,14.75
2018-04-22T00:29:28.015Z,14.68
2018-04-22T00:32:32.044Z,14.67
2018-04-22T00:35:35.662Z,14.61
2018-04-22T00:38:38.949Z,14.58
2018-04-22T00:41:42.199Z,14.49
2018-04-22T00:44:45.467Z,14.41
2018-04-22T00:47:48.737Z,14.39
2018-04-22T00:50:52.002Z,14.27
2018-04-22T00:54:13.270Z,14.32
2018-04-22T00:57:16.553Z,14.34
2018-04-22T01:00:19.814Z,14.28
2018-04-22T01:03:23.615Z,14.25
2018-04-22T01:06:26.874Z,14.11
2018-04-22T01:09:30.180Z,14.07
2018-04-22T01:12:33.438Z,14.06
2018-04-22T01:15:37.457Z,13.88
2018-04-22T01:18:41.486Z,13.81
2018-04-22T01:21:44.759Z,13.85
2018-04-22T01:24:48.023Z,13.86
2018-04-22T01:27:51.483Z,13.80
2018-04-22T01:30:54.759Z,13.80
2018-04-22T01:33:58.798Z,13.68
2018-04-22T01:37:02.810Z,13.72
2018-04-22T01:40:06.844Z,13.61
2018-04-22T01:43:10.115Z,13.66
2018-04-22T01:46:14.140Z,13.59
2018-04-22T01:49:18.197Z,13.60
2018-04-22T01:52:21.449Z,13.55
2018-04-22T01:55:25.483Z,13.51
2018-04-22T01:58:28.780Z,13.49
2018-04-22T02:01:32.055Z,13.43
2018-04-22T02:04:36.079Z,13.41
2018-04-22T02:07:40.121Z,13.43
2018-04-22T02:10:43.407Z,13.36
2018-04-22T02:13:46.667Z,13.23
2018-04-22T02:16:50.688Z,13.24
2018-04-22T02:19:54.714Z,13.26
2018-04-22T02:22:58.862Z,13.19
2018-04-22T02:26:02.131Z,13.17
2018-04-22T02:29:06.170Z,13.07
2018-04-22T02:32:09.460Z,13.08
2018-04-22T02:35:13.595Z,13.13
2018-04-22T02:38:16.877Z,13.10
2018-04-22T02:41:20.132Z,13.14
2018-04-22T02:44:23.410Z,13.05
2018-04-22T02:47:26.760Z,13.05
2018-04-22T02:50:30.026Z,13.08
2018-04-22T02:53:33.643Z,13.06
2018-04-22T02:56:37.674Z,13.01
2018-04-22T02:59:40.938Z,12.98
2018-04-22T03:02:44.195Z,12.96
2018-04-22T03:05:47.473Z,12.96
2018-04-22T03:08:50.743Z,12.92
2018-04-22T03:11:56.512Z,12.82
2018-04-22T03:15:00.557Z,12.79
2018-04-22T03:18:03.848Z,12.69
2018-04-22T03:21:07.121Z,12.73
2018-04-22T03:24:11.160Z,12.67
2018-04-22T03:27:14.427Z,12.60
2018-04-22T03:30:18.811Z,12.61
2018-04-22T03:33:22.074Z,12.62
2018-04-22T03:36:25.338Z,12.47
2018-04-22T03:39:29.420Z,12.45
2018-04-22T03:42:32.746Z,12.47
2018-04-22T03:45:35.978Z,12.48
2018-04-22T03:48:39.271Z,12.47
2018-04-22T03:51:43.322Z,12.39
2018-04-22T03:54:46.599Z,12.41
2018-04-22T03:57:49.863Z,12.35
2018-04-22T04:00:53.897Z,12.29
2018-04-22T04:03:57.952Z,12.31
2018-04-22T04:07:01.241Z,12.30
2018-04-22T04:10:04.526Z,12.36
2018-04-22T04:13:07.847Z,12.31
2018-04-22T04:16:11.152Z,12.23
2018-04-22T04:19:32.403Z,12.18
2018-04-22T04:22:47.266Z,12.18
2018-04-22T04:29:45.611Z,12.14
2018-04-22T04:32:48.897Z,12.14
2018-04-22T04:35:52.949Z,12.25
2018-04-22T04:38:56.234Z,12.30
2018-04-22T04:41:59.500Z,12.31
2018-04-22T04:45:03.550Z,12.41
2018-04-22T04:48:06.885Z,12.50
2018-04-22T04:51:10.166Z,12.55
2018-04-22T04:54:13.461Z,12.65
2018-04-22T04:57:16.824Z,12.74
2018-04-22T05:00:20.370Z,12.82
2018-04-22T05:03:23.644Z,12.90
2018-04-22T05:06:26.948Z,13.08
2018-04-22T05:09:30.267Z,13.15
2018-04-22T05:12:33.557Z,13.34
2018-04-22T05:15:36.858Z,13.69
2018-04-22T05:18:40.169Z,13.84
2018-04-22T05:21:43.447Z,14.14
2018-04-22T05:24:46.738Z,14.49
2018-04-22T05:27:50.757Z,14.90
2018-04-22T05:30:54.852Z,15.00
2018-04-22T05:33:58.882Z,15.06
2018-04-22T05:37:02.163Z,15.24
2018-04-22T05:40:06.194Z,15.72
2018-04-22T05:43:09.495Z,16.41
2018-04-22T05:46:12.749Z,17.24
2018-04-22T05:49:16.094Z,17.58
2018-04-22T05:52:19.382Z,17.46
2018-04-22T05:55:22.680Z,18.02
2018-04-22T05:58:26.005Z,18.56
2018-04-22T06:01:29.256Z,19.39
2018-04-22T06:04:33.293Z,20.32
2018-04-22T06:07:36.608Z,21.20
2018-04-22T06:10:39.893Z,20.74
2018-04-22T06:13:43.421Z,20.59
2018-04-22T06:16:46.699Z,21.61
2018-04-22T06:19:50.064Z,21.98
2018-04-22T06:22:55.513Z,22.08
2018-04-22T06:25:58.792Z,21.61
2018-04-22T06:29:02.054Z,21.52
2018-04-22T06:32:05.331Z,22.24
2018-04-22T06:35:08.628Z,21.86
2018-04-22T06:38:11.917Z,21.67
2018-04-22T06:41:16.024Z,22.15
2018-04-22T06:44:20.063Z,21.87
2018-04-22T06:47:23.376Z,21.59
2018-04-22T06:50:26.641Z,21.33
2018-04-22T06:53:31.574Z,21.92
2018-04-22T06:56:34.972Z,22.36
2018-04-22T06:59:38.995Z,21.90
2018-04-22T07:02:43.031Z,21.93
2018-04-22T07:05:46.329Z,22.35
2018-04-22T07:08:49.769Z,21.97
2018-04-22T07:11:53.031Z,22.55
2018-04-22T07:14:56.398Z,22.07
2018-04-22T07:18:00.745Z,22.23
2018-04-22T07:21:04.023Z,22.43
2018-04-22T07:24:08.090Z,21.81
2018-04-22T07:27:11.706Z,22.27
2018-04-22T07:30:15.774Z,22.49
2018-04-22T07:33:19.067Z,22.39
2018-04-22T07:36:23.166Z,22.69
2018-04-22T07:39:27.191Z,22.83
2018-04-22T07:42:31.285Z,22.20
2018-04-22T07:45:34.479Z,22.26
2018-04-22T07:48:37.774Z,23.03
2018-04-22T07:51:41.037Z,23.37
2018-04-22T07:54:44.301Z,23.88
2018-04-22T07:57:48.356Z,23.00
2018-04-22T08:00:51.658Z,23.23
2018-04-22T08:03:54.919Z,23.09
2018-04-22T08:06:58.189Z,23.51
2018-04-22T08:10:01.454Z,22.86
2018-04-22T08:13:04.719Z,22.66
2018-04-22T08:16:07.987Z,23.20
2018-04-22T08:19:11.290Z,23.62
2018-04-22T08:22:15.310Z,24.32
2018-04-22T08:25:19.336Z,24.56
2018-04-22T08:28:22.618Z,24.30
2018-04-22T08:31:26.681Z,24.47
2018-04-22T08:34:29.960Z,23.98
2018-04-22T08:37:33.278Z,24.12
2018-04-22T08:40:36.567Z,24.11
2018-04-22T08:43:39.837Z,24.11
2018-04-22T08:46:43.863Z,24.64
2018-04-22T08:49:47.135Z,23.88
2018-04-22T08:52:50.400Z,24.08
2018-04-22T08:55:53.686Z,24.21
2018-04-22T08:58:56.935Z,24.42
2018-04-22T09:02:01.002Z,24.08
2018-04-22T09:05:04.250Z,24.72
2018-04-22T09:08:08.271Z,24.83
2018-04-22T09:11:11.715Z,24.42
2018-04-22T09:14:15.023Z,24.82
2018-04-22T09:17:18.273Z,24.77
2018-04-22T09:20:21.568Z,24.80
2018-04-22T09:23:24.922Z,25.09
2018-04-22T09:26:28.186Z,24.78
2018-04-22T09:29:31.510Z,24.13
2018-04-22T09:32:34.763Z,24.29
2018-04-22T09:35:38.025Z,23.94
2018-04-22T09:38:42.067Z,24.06
2018-04-22T09:41:46.093Z,24.72
2018-04-22T09:44:49.353Z,25.08
2018-04-22T09:47:52.625Z,25.03
2018-04-22T09:50:55.885Z,25.22
2018-04-22T09:53:59.150Z,24.82
2018-04-22T09:57:03.192Z,24.41
2018-04-22T10:00:06.467Z,24.38
2018-04-22T10:03:09.755Z,24.26
2018-04-22T10:06:13.175Z,24.16
2018-04-22T10:09:17.207Z,24.40
2018-04-22T10:12:20.489Z,24.64
2018-04-22T10:15:23.779Z,24.91
2018-04-22T10:18:27.076Z,24.58
2018-04-22T10:21:30.334Z,24.76
2018-04-22T10:24:33.660Z,24.99
2018-04-22T10:27:37.080Z,24.79
2018-04-22T10:30:41.235Z,25.36
2018-04-22T10:33:44.495Z,25.49
2018-04-22T10:36:47.770Z,25.79
2018-04-22T10:39:51.757Z,25.98
2018-04-22T10:42:55.171Z,25.36
2018-04-22T10:45:58.468Z,24.95
2018-04-22T10:49:02.518Z,24.64
2018-04-22T10:52:05.785Z,25.26
2018-04-22T10:55:09.201Z,25.75
2018-04-22T10:58:12.404Z,26.02
2018-04-22T11:01:15.694Z,26.07
2018-04-22T11:04:18.991Z,25.54
2018-04-22T11:07:22.249Z,25.50
2018-04-22T11:10:26.218Z,25.70
2018-04-22T11:13:29.483Z,25.46
2018-04-22T11:16:32.734Z,25.69
2018-04-22T11:19:36.772Z,25.48
2018-04-22T11:22:40.083Z,25.50
2018-04-22T11:25:43.378Z,25.81
2018-04-22T11:28:46.645Z,26.10
2018-04-22T11:31:50.662Z,26.04
2018-04-22T11:34:54.747Z,26.18
2018-04-22T11:37:58.096Z,25.24
2018-04-22T11:41:01.391Z,25.24
2018-04-22T11:44:04.702Z,25.61
2018-04-22T11:47:08.680Z,25.62
2018-04-22T11:50:12.763Z,25.58
2018-04-22T11:53:16.094Z,25.55
2018-04-22T11:56:20.116Z,25.73
2018-04-22T11:59:24.201Z,26.12
2018-04-22T12:02:27.512Z,25.85
2018-04-22T12:05:30.803Z,26.34
2018-04-22T12:08:34.096Z,26.49
2018-04-22T12:11:37.610Z,25.82
2018-04-22T12:14:41.707Z,25.90
2018-04-22T12:17:44.952Z,25.74
2018-04-22T12:20:49.008Z,25.71
2018-04-22T12:23:52.270Z,25.98
2018-04-22T12:26:55.545Z,25.76
2018-04-22T12:29:58.887Z,25.36
2018-04-22T12:33:02.207Z,25.48
2018-04-22T12:36:05.477Z,25.70
2018-04-22T12:39:08.771Z,25.84
2018-04-22T12:42:12.053Z,26.18
2018-04-22T12:45:15.370Z,26.35
2018-04-22T12:48:18.839Z,25.72
2018-04-22T12:51:22.885Z,26.25
2018-04-22T12:54:26.169Z,26.68
2018-04-22T12:57:29.468Z,26.56
2018-04-22T13:00:32.823Z,25.81
2018-04-22T13:03:36.080Z,25.51
2018-04-22T13:06:39.376Z,25.71
2018-04-22T13:09:42.657Z,25.49
2018-04-22T13:12:45.959Z,25.81
2018-04-22T13:15:49.235Z,25.56
2018-04-22T13:18:53.308Z,25.59
2018-04-22T13:21:56.571Z,25.44
2018-04-22T13:24:59.868Z,25.46
2018-04-22T13:28:03.131Z,25.50
2018-04-22T13:31:06.401Z,25.78
2018-04-22T13:34:10.786Z,25.55
2018-04-22T13:37:16.440Z,25.30
2018-04-22T13:40:20.145Z,25.68
2018-04-22T13:43:23.867Z,25.90
2018-04-22T13:46:28.119Z,26.10
2018-04-22T13:49:31.948Z,25.88
2018-04-22T13:52:35.777Z,25.46
2018-04-22T13:55:39.199Z,25.70
2018-04-22T13:58:43.525Z,25.98
2018-04-22T14:01:47.764Z,25.93
2018-04-22T14:04:51.078Z,25.57
2018-04-22T14:07:54.853Z,25.65
2018-04-22T14:10:58.327Z,25.74
2018-04-22T14:14:03.113Z,25.95
2018-04-22T14:17:07.383Z,25.99
2018-04-22T14:20:10.659Z,25.90
2018-04-22T14:23:14.199Z,26.00
2018-04-22T14:26:17.610Z,26.08
2018-04-22T14:29:20.944Z,26.22
2018-04-22T14:36:01.153Z,25.59
2018-04-22T14:39:04.439Z,25.61
2018-04-22T14:42:07.738Z,25.74
2018-04-22T14:45:28.865Z,25.73
2018-04-22T14:48:33.154Z,25.78
2018-04-22T14:51:36.690Z,25.75
2018-04-22T14:54:40.030Z,25.77
2018-04-22T14:57:44.084Z,25.61
2018-04-22T15:00:47.345Z,25.73
2018-04-22T15:03:51.528Z,25.70
2018-04-22T15:06:54.847Z,25.82
2018-04-22T15:09:58.124Z,25.86
2018-04-22T15:13:01.481Z,25.78
2018-04-22T15:16:05.605Z,25.80
2018-04-22T15:19:09.698Z,25.86
2018-04-22T15:22:12.991Z,25.88
2018-04-22T15:25:16.416Z,25.78
2018-04-22T15:28:20.667Z,25.70
2018-04-22T15:31:24.319Z,25.76
2018-04-22T15:35:00.208Z,25.79
2018-04-22T15:38:25.283Z,25.91
2018-04-22T15:41:30.148Z,25.90
2018-04-22T15:44:33.451Z,25.89
2018-04-22T15:47:36.731Z,25.90
2018-04-22T15:50:40.066Z,25.78
2018-04-22T15:53:43.354Z,25.70
2018-04-22T15:56:46.698Z,25.73
2018-04-22T15:59:50.752Z,25.69
2018-04-22T16:02:55.487Z,25.71
2018-04-22T16:05:58.779Z,25.34
2018-04-22T16:09:02.059Z,25.18
2018-04-22T16:12:05.442Z,25.38
2018-04-22T16:15:09.495Z,25.39
2018-04-22T16:18:12.819Z,25.44
2018-04-22T16:21:16.098Z,25.44
2018-04-22T16:24:19.392Z,25.36
2018-04-22T16:27:22.871Z,25.32
2018-04-22T16:30:36.978Z,25.34
2018-04-22T16:33:41.277Z,25.22
2018-04-22T16:36:45.437Z,25.35
2018-04-22T16:39:50.061Z,24.96
2018-04-22T16:42:55.415Z,24.95
2018-04-22T16:46:02.286Z,25.02
2018-04-22T16:49:05.658Z,25.02
2018-04-22T16:52:09.006Z,25.10
2018-04-22T16:55:12.379Z,24.79
2018-04-22T16:58:15.666Z,24.60
2018-04-22T17:01:19.030Z,24.58
2018-04-22T17:04:23.080Z,24.55
2018-04-22T17:07:26.396Z,24.45
2018-04-22T17:14:03.650Z,24.27
2018-04-22T17:17:06.975Z,24.20
2018-04-22T17:20:10.278Z,24.16
2018-04-22T17:23:13.562Z,24.09
2018-04-22T17:26:17.651Z,23.90
2018-04-22T17:29:24.898Z,23.69
2018-04-22T17:32:28.277Z,23.59
2018-04-22T17:35:32.398Z,23.60
2018-04-22T17:38:36.442Z,23.56
2018-04-22T17:41:39.724Z,23.48
2018-04-22T17:44:42.996Z,23.35
2018-04-22T17:47:46.317Z,23.24
2018-04-22T17:50:49.621Z,23.08
2018-04-22T17:53:52.896Z,22.96
2018-04-22T17:56:56.922Z,22.85
2018-04-22T18:00:00.950Z,22.70
2018-04-22T18:03:04.348Z,22.48
2018-04-22T18:06:08.405Z,22.28
2018-04-22T18:09:11.698Z,22.10
2018-04-22T18:12:15.129Z,21.93
2018-04-22T18:15:18.470Z,21.80
2018-04-22T18:18:21.804Z,21.67
2018-04-22T18:21:25.409Z,21.60
2018-04-22T18:24:28.909Z,21.50
2018-04-22T18:27:33.210Z,21.39
2018-04-22T18:30:37.386Z,21.30
2018-04-22T18:33:40.686Z,21.22
2018-04-22T18:36:44.076Z,21.09
2018-04-22T18:39:47.542Z,20.90
2018-04-22T18:42:50.874Z,20.85
2018-04-22T18:45:54.596Z,20.75
2018-04-22T18:48:59.019Z,20.53
2018-04-22T18:52:02.342Z,20.50
2018-04-22T18:55:05.699Z,20.47
2018-04-22T18:58:09.009Z,20.39
2018-04-22T19:01:12.368Z,20.24
2018-04-22T19:04:16.425Z,20.21
2018-04-22T19:07:19.698Z,20.02
2018-04-22T19:10:23.763Z,19.99
2018-04-22T19:13:28.402Z,19.85
2018-04-22T19:16:31.693Z,19.68
2018-04-22T19:19:34.954Z,19.44
2018-04-22T19:22:38.264Z,19.44
2018-04-22T19:25:41.557Z,19.39
2018-04-22T19:28:44.853Z,19.42
2018-04-22T19:31:48.466Z,19.35
2018-04-22T19:34:53.282Z,19.30
2018-04-22T19:37:59.259Z,19.29
2018-04-22T19:41:02.572Z,19.16
2018-04-22T19:44:07.451Z,19.07
2018-04-22T19:47:11.129Z,19.00
2018-04-22T19:50:14.505Z,18.93
2018-04-22T19:53:18.543Z,18.79
2018-04-22T19:56:21.798Z,18.65
2018-04-22T19:59:25.080Z,18.67
2018-04-22T20:02:28.327Z,18.52
2018-04-22T20:05:31.611Z,18.20
2018-04-22T20:08:35.731Z,18.20
2018-04-22T20:11:39.751Z,18.02
2018-04-22T20:14:43.044Z,18.05
2018-04-22T20:17:46.361Z,17.96
2018-04-22T20:20:49.642Z,17.92
2018-04-22T20:23:52.924Z,17.74
2018-04-22T20:26:56.949Z,17.77
2018-04-22T20:30:01.007Z,17.60
2018-04-22T20:33:05.090Z,17.61
2018-04-22T20:36:08.377Z,17.57
2018-04-22T20:39:12.410Z,17.41
2018-04-22T20:42:15.675Z,17.02
2018-04-22T20:45:19.711Z,17.09
2018-04-22T20:48:23.027Z,16.95
2018-04-22T20:51:26.296Z,16.93
2018-04-22T20:54:30.322Z,16.77
2018-04-22T20:57:34.385Z,16.92
2018-04-22T21:00:37.875Z,16.95
2018-04-22T21:03:41.170Z,16.92
2018-04-22T21:06:44.431Z,16.85
2018-04-22T21:09:48.502Z,16.81
2018-04-22T21:12:51.755Z,16.79
2018-04-22T21:15:55.043Z,16.65
2018-04-22T21:18:59.122Z,16.71
2018-04-22T21:22:02.391Z,16.68
2018-04-22T21:25:05.683Z,16.73
2018-04-22T21:28:08.967Z,16.65
2018-04-22T21:31:12.265Z,16.73
2018-04-22T21:34:15.543Z,16.70
2018-04-22T21:37:19.584Z,16.77
2018-04-22T21:40:22.849Z,16.78
2018-04-22T21:43:26.883Z,16.63
2018-04-22T21:46:30.186Z,16.71
2018-04-22T21:49:33.490Z,16.63
2018-04-22T21:52:36.769Z,16.67
2018-04-22T21:55:40.796Z,16.68
2018-04-22T21:58:44.083Z,16.63
2018-04-22T22:01:48.098Z,16.59
2018-04-22T22:04:52.134Z,16.55
2018-04-22T22:07:55.521Z,16.51
2018-04-22T22:10:59.583Z,16.50
2018-04-22T22:14:02.941Z,16.46
2018-04-22T22:17:06.429Z,16.35
2018-04-22T22:20:10.508Z,16.37
2018-04-22T22:23:13.788Z,16.36
2018-04-22T22:26:17.064Z,16.39
2018-04-22T22:29:20.338Z,16.38
2018-04-22T22:32:24.381Z,16.40
2018-04-22T22:35:27.732Z,16.34
2018-04-22T22:38:31.024Z,16.32
2018-04-22T22:41:34.421Z,16.31
2018-04-22T22:44:37.811Z,16.21
2018-04-22T22:47:41.070Z,16.19
2018-04-22T22:50:44.352Z,16.13
2018-04-22T22:53:48.495Z,16.09
2018-04-22T22:56:51.779Z,16.08
2018-04-22T22:59:55.039Z,16.06
2018-04-22T23:02:58.315Z,16.03
2018-04-22T23:06:02.345Z,15.96
2018-04-22T23:09:06.533Z,15.82
2018-04-22T23:12:09.804Z,15.78
2018-04-22T23:15:13.105Z,15.74
2018-04-22T23:18:16.399Z,15.63
2018-04-22T23:21:19.718Z,15.56
2018-04-22T23:24:22.979Z,15.47
2018-04-22T23:27:27.007Z,15.36
2018-04-22T23:30:30.311Z,15.33
2018-04-22T23:33:33.809Z,15.32
2018-04-22T23:36:37.092Z,15.31
2018-04-22T23:39:41.123Z,15.28
2018-04-22T23:42:44.684Z,15.18
2018-04-22T23:45:47.983Z,15.11
2018-04-22T23:48:51.297Z,15.15
2018-04-22T23:51:55.346Z,15.25
2018-04-22T23:54:58.622Z,15.40
2018-04-22T23:58:01.899Z,15.44
